sensor_id;sensor_type;location;lat;lon;timestamp;temperature;humidity
16198;DHT22;8206;51.440;6.914;2024-03-29T00:00:42;7.80;1.00
16198;DHT22;8206;51.440;6.914;2024-03-29T00:03:08;7.80;1.00
16198;DHT22;8206;51.440;6.914;2024-03-29T00:05:34;7.80;1.00
16198;DHT22;8206;51.440;6.914;2024-03-29T00:08:00;7.80;1.00
16198;DHT22;8206;51.440;6.914;2024-03-29T00:10:26;7.70;1.00
16198;DHT22;8206;51.440;6.914;2024-03-29T00:12:52;7.80;1.00
16198;DHT22;8206;51.440;6.914;2024-03-29T00:15:18;7.80;1.00
16198;DHT22;8206;51.440;6.914;2024-03-29T00:17:45;7.80;1.00
16198;DHT22;8206;51.440;6.914;2024-03-29T00:20:11;7.80;1.00
16198;DHT22;8206;51.440;6.914;2024-03-29T00:22:37;7.80;1.00
16198;DHT22;8206;51.440;6.914;2024-03-29T00:25:03;7.80;1.00
16198;DHT22;8206;51.440;6.914;2024-03-29T00:27:29;7.80;1.00
16198;DHT22;8206;51.440;6.914;2024-03-29T00:29:55;7.80;1.00
16198;DHT22;8206;51.440;6.914;2024-03-29T00:32:21;7.80;1.00
16198;DHT22;8206;51.440;6.914;2024-03-29T00:34:50;7.90;1.00
16198;DHT22;8206;51.440;6.914;2024-03-29T00:37:16;7.80;1.00
16198;DHT22;8206;51.440;6.914;2024-03-29T00:39:42;7.80;1.00
16198;DHT22;8206;51.440;6.914;2024-03-29T00:42:08;7.80;1.00
16198;DHT22;8206;51.440;6.914;2024-03-29T00:44:34;7.70;1.00
16198;DHT22;8206;51.440;6.914;2024-03-29T00:47:00;7.70;1.00
16198;DHT22;8206;51.440;6.914;2024-03-29T00:49:26;7.70;1.00
16198;DHT22;8206;51.440;6.914;2024-03-29T00:51:53;7.70;1.00
16198;DHT22;8206;51.440;6.914;2024-03-29T00:54:19;7.70;1.00
16198;DHT22;8206;51.440;6.914;2024-03-29T00:56:45;7.70;1.00
16198;DHT22;8206;51.440;6.914;2024-03-29T00:59:11;7.60;1.00
16198;DHT22;8206;51.440;6.914;2024-03-29T01:01:36;7.60;1.00
16198;DHT22;8206;51.440;6.914;2024-03-29T01:04:02;7.50;1.00
16198;DHT22;8206;51.440;6.914;2024-03-29T01:06:28;7.60;1.00
16198;DHT22;8206;51.440;6.914;2024-03-29T01:08:55;7.60;1.00
16198;DHT22;8206;51.440;6.914;2024-03-29T01:11:21;7.60;1.00
16198;DHT22;8206;51.440;6.914;2024-03-29T01:13:47;7.60;1.00
16198;DHT22;8206;51.440;6.914;2024-03-29T01:16:13;7.60;1.00
16198;DHT22;8206;51.440;6.914;2024-03-29T01:18:38;7.60;1.00
16198;DHT22;8206;51.440;6.914;2024-03-29T01:21:04;7.70;1.00
16198;DHT22;8206;51.440;6.914;2024-03-29T01:23:30;7.70;1.00
16198;DHT22;8206;51.440;6.914;2024-03-29T01:25:57;7.80;1.00
16198;DHT22;8206;51.440;6.914;2024-03-29T01:28:23;7.80;1.00
16198;DHT22;8206;51.440;6.914;2024-03-29T01:30:52;7.90;1.00
16198;DHT22;8206;51.440;6.914;2024-03-29T01:33:18;8.00;1.00
16198;DHT22;8206;51.440;6.914;2024-03-29T01:35:43;8.00;1.00
16198;DHT22;8206;51.440;6.914;2024-03-29T01:38:09;8.00;1.00
16198;DHT22;8206;51.440;6.914;2024-03-29T01:40:35;8.10;1.00
16198;DHT22;8206;51.440;6.914;2024-03-29T01:43:02;8.20;1.00
16198;DHT22;8206;51.440;6.914;2024-03-29T01:45:29;8.30;1.00
16198;DHT22;8206;51.440;6.914;2024-03-29T01:47:56;8.40;1.00
16198;DHT22;8206;51.440;6.914;2024-03-29T01:50:23;8.50;1.00
16198;DHT22;8206;51.440;6.914;2024-03-29T01:52:50;8.50;1.00
16198;DHT22;8206;51.440;6.914;2024-03-29T01:55:17;8.60;1.00
16198;DHT22;8206;51.440;6.914;2024-03-29T01:57:44;8.70;1.00
16198;DHT22;8206;51.440;6.914;2024-03-29T02:00:13;8.70;1.00
16198;DHT22;8206;51.440;6.914;2024-03-29T02:02:39;8.80;1.00
16198;DHT22;8206;51.440;6.914;2024-03-29T02:05:07;8.80;1.00
16198;DHT22;8206;51.440;6.914;2024-03-29T02:07:35;8.80;1.00
16198;DHT22;8206;51.440;6.914;2024-03-29T02:10:02;8.80;1.00
16198;DHT22;8206;51.440;6.914;2024-03-29T02:12:29;8.90;1.00
16198;DHT22;8206;51.440;6.914;2024-03-29T02:14:55;8.90;1.00
16198;DHT22;8206;51.440;6.914;2024-03-29T02:17:24;8.90;1.00
16198;DHT22;8206;51.440;6.914;2024-03-29T02:19:51;8.90;1.00
16198;DHT22;8206;51.440;6.914;2024-03-29T02:22:20;9.00;1.00
16198;DHT22;8206;51.440;6.914;2024-03-29T02:24:50;9.00;1.00
16198;DHT22;8206;51.440;6.914;2024-03-29T02:27:17;9.00;1.00
16198;DHT22;8206;51.440;6.914;2024-03-29T02:29:43;9.00;1.00
16198;DHT22;8206;51.440;6.914;2024-03-29T02:32:10;9.00;1.00
16198;DHT22;8206;51.440;6.914;2024-03-29T02:34:37;9.00;1.00
16198;DHT22;8206;51.440;6.914;2024-03-29T02:37:03;9.00;1.00
16198;DHT22;8206;51.440;6.914;2024-03-29T02:39:31;9.10;1.00
16198;DHT22;8206;51.440;6.914;2024-03-29T02:41:59;9.10;1.00
16198;DHT22;8206;51.440;6.914;2024-03-29T02:44:26;9.10;1.00
16198;DHT22;8206;51.440;6.914;2024-03-29T02:46:52;9.20;1.00
16198;DHT22;8206;51.440;6.914;2024-03-29T02:49:19;9.20;1.00
16198;DHT22;8206;51.440;6.914;2024-03-29T02:51:45;9.30;1.00
16198;DHT22;8206;51.440;6.914;2024-03-29T02:54:11;9.40;1.00
16198;DHT22;8206;51.440;6.914;2024-03-29T02:56:37;9.40;1.00
16198;DHT22;8206;51.440;6.914;2024-03-29T02:59:05;9.50;1.00
16198;DHT22;8206;51.440;6.914;2024-03-29T03:01:31;9.50;1.00
16198;DHT22;8206;51.440;6.914;2024-03-29T03:03:57;9.60;1.00
16198;DHT22;8206;51.440;6.914;2024-03-29T03:06:23;9.50;1.00
16198;DHT22;8206;51.440;6.914;2024-03-29T03:08:50;9.50;1.00
16198;DHT22;8206;51.440;6.914;2024-03-29T03:11:34;9.50;1.00
16198;DHT22;8206;51.440;6.914;2024-03-29T03:14:01;9.40;1.00
16198;DHT22;8206;51.440;6.914;2024-03-29T03:16:29;9.40;1.00
16198;DHT22;8206;51.440;6.914;2024-03-29T03:18:55;9.40;1.00
16198;DHT22;8206;51.440;6.914;2024-03-29T03:21:21;9.30;1.00
16198;DHT22;8206;51.440;6.914;2024-03-29T03:23:47;9.30;1.00
16198;DHT22;8206;51.440;6.914;2024-03-29T03:26:14;9.30;1.00
16198;DHT22;8206;51.440;6.914;2024-03-29T03:28:39;9.20;1.00
16198;DHT22;8206;51.440;6.914;2024-03-29T03:31:06;9.20;1.00
16198;DHT22;8206;51.440;6.914;2024-03-29T03:33:34;9.20;1.00
16198;DHT22;8206;51.440;6.914;2024-03-29T03:36:00;9.20;1.00
16198;DHT22;8206;51.440;6.914;2024-03-29T03:38:26;9.20;1.00
16198;DHT22;8206;51.440;6.914;2024-03-29T03:40:53;9.30;1.00
16198;DHT22;8206;51.440;6.914;2024-03-29T03:43:18;9.30;1.00
16198;DHT22;8206;51.440;6.914;2024-03-29T03:45:45;9.30;1.00
16198;DHT22;8206;51.440;6.914;2024-03-29T03:48:12;9.30;1.00
16198;DHT22;8206;51.440;6.914;2024-03-29T03:50:41;9.30;1.00
16198;DHT22;8206;51.440;6.914;2024-03-29T03:53:07;9.20;1.00
16198;DHT22;8206;51.440;6.914;2024-03-29T03:55:36;9.20;1.00
16198;DHT22;8206;51.440;6.914;2024-03-29T03:58:01;9.20;1.00
16198;DHT22;8206;51.440;6.914;2024-03-29T04:00:28;9.20;1.00
16198;DHT22;8206;51.440;6.914;2024-03-29T04:02:54;9.10;1.00
16198;DHT22;8206;51.440;6.914;2024-03-29T04:05:22;9.10;1.00
16198;DHT22;8206;51.440;6.914;2024-03-29T04:07:49;9.10;1.00
16198;DHT22;8206;51.440;6.914;2024-03-29T04:10:16;9.10;1.00
16198;DHT22;8206;51.440;6.914;2024-03-29T04:12:41;9.10;1.00
16198;DHT22;8206;51.440;6.914;2024-03-29T04:15:08;9.10;1.00
16198;DHT22;8206;51.440;6.914;2024-03-29T04:17:35;9.00;1.00
16198;DHT22;8206;51.440;6.914;2024-03-29T04:20:02;9.10;1.00
16198;DHT22;8206;51.440;6.914;2024-03-29T04:22:28;9.10;1.00
16198;DHT22;8206;51.440;6.914;2024-03-29T04:24:56;9.00;1.00
16198;DHT22;8206;51.440;6.914;2024-03-29T04:27:22;9.00;1.00
16198;DHT22;8206;51.440;6.914;2024-03-29T04:29:51;9.00;1.00
16198;DHT22;8206;51.440;6.914;2024-03-29T04:32:17;9.10;1.00
16198;DHT22;8206;51.440;6.914;2024-03-29T04:34:46;9.10;1.00
16198;DHT22;8206;51.440;6.914;2024-03-29T04:37:12;9.10;1.00
16198;DHT22;8206;51.440;6.914;2024-03-29T04:39:39;9.10;1.00
16198;DHT22;8206;51.440;6.914;2024-03-29T04:42:07;9.00;1.00
16198;DHT22;8206;51.440;6.914;2024-03-29T04:44:33;9.00;1.00
16198;DHT22;8206;51.440;6.914;2024-03-29T04:47:00;8.90;1.00
16198;DHT22;8206;51.440;6.914;2024-03-29T04:49:27;8.80;1.00
16198;DHT22;8206;51.440;6.914;2024-03-29T04:51:58;8.80;1.00
16198;DHT22;8206;51.440;6.914;2024-03-29T04:54:25;8.80;1.00
16198;DHT22;8206;51.440;6.914;2024-03-29T04:56:52;8.80;1.00
16198;DHT22;8206;51.440;6.914;2024-03-29T04:59:20;8.80;1.00
16198;DHT22;8206;51.440;6.914;2024-03-29T05:01:47;8.70;1.00
16198;DHT22;8206;51.440;6.914;2024-03-29T05:04:15;8.70;1.00
16198;DHT22;8206;51.440;6.914;2024-03-29T05:06:44;8.70;1.00
16198;DHT22;8206;51.440;6.914;2024-03-29T05:09:11;8.60;1.00
16198;DHT22;8206;51.440;6.914;2024-03-29T05:11:38;8.60;1.00
16198;DHT22;8206;51.440;6.914;2024-03-29T05:14:04;8.50;1.00
16198;DHT22;8206;51.440;6.914;2024-03-29T05:16:32;8.50;1.00
16198;DHT22;8206;51.440;6.914;2024-03-29T05:18:59;8.50;1.00
16198;DHT22;8206;51.440;6.914;2024-03-29T05:21:26;8.40;1.00
16198;DHT22;8206;51.440;6.914;2024-03-29T05:23:52;8.40;1.00
16198;DHT22;8206;51.440;6.914;2024-03-29T05:26:19;8.40;1.00
16198;DHT22;8206;51.440;6.914;2024-03-29T05:28:45;8.40;1.00
16198;DHT22;8206;51.440;6.914;2024-03-29T05:31:13;8.40;1.00
16198;DHT22;8206;51.440;6.914;2024-03-29T05:33:42;8.40;1.00
16198;DHT22;8206;51.440;6.914;2024-03-29T05:36:08;8.30;1.00
16198;DHT22;8206;51.440;6.914;2024-03-29T05:38:36;8.30;1.00
16198;DHT22;8206;51.440;6.914;2024-03-29T05:41:03;8.30;1.00
16198;DHT22;8206;51.440;6.914;2024-03-29T05:43:31;8.30;1.00
16198;DHT22;8206;51.440;6.914;2024-03-29T05:45:57;8.30;1.00
16198;DHT22;8206;51.440;6.914;2024-03-29T05:48:25;8.20;1.00
16198;DHT22;8206;51.440;6.914;2024-03-29T05:50:53;8.20;1.00
16198;DHT22;8206;51.440;6.914;2024-03-29T05:53:20;8.20;1.00
16198;DHT22;8206;51.440;6.914;2024-03-29T05:55:47;8.20;1.00
16198;DHT22;8206;51.440;6.914;2024-03-29T05:58:14;8.20;1.00
16198;DHT22;8206;51.440;6.914;2024-03-29T06:00:43;8.20;1.00
16198;DHT22;8206;51.440;6.914;2024-03-29T06:03:10;8.20;1.00
16198;DHT22;8206;51.440;6.914;2024-03-29T06:05:36;8.20;1.00
16198;DHT22;8206;51.440;6.914;2024-03-29T06:08:05;8.20;1.00
16198;DHT22;8206;51.440;6.914;2024-03-29T06:10:32;8.20;7.00
16198;DHT22;8206;51.440;6.914;2024-03-29T06:12:58;8.20;1.00
16198;DHT22;8206;51.440;6.914;2024-03-29T06:15:32;8.20;1.00
16198;DHT22;8206;51.440;6.914;2024-03-29T06:18:16;8.20;1.00
16198;DHT22;8206;51.440;6.914;2024-03-29T06:20:44;8.20;1.00
16198;DHT22;8206;51.440;6.914;2024-03-29T06:23:12;8.20;1.00
16198;DHT22;8206;51.440;6.914;2024-03-29T06:25:39;8.20;1.00
16198;DHT22;8206;51.440;6.914;2024-03-29T06:28:06;8.20;1.00
16198;DHT22;8206;51.440;6.914;2024-03-29T06:30:33;8.20;1.00
16198;DHT22;8206;51.440;6.914;2024-03-29T06:32:59;8.30;1.00
16198;DHT22;8206;51.440;6.914;2024-03-29T06:35:28;8.20;1.00
16198;DHT22;8206;51.440;6.914;2024-03-29T06:37:55;8.30;1.00
16198;DHT22;8206;51.440;6.914;2024-03-29T06:40:23;8.30;1.00
16198;DHT22;8206;51.440;6.914;2024-03-29T06:42:50;8.40;1.00
16198;DHT22;8206;51.440;6.914;2024-03-29T06:45:17;8.30;1.00
16198;DHT22;8206;51.440;6.914;2024-03-29T06:47:43;8.40;1.00
16198;DHT22;8206;51.440;6.914;2024-03-29T06:50:10;8.40;1.00
16198;DHT22;8206;51.440;6.914;2024-03-29T06:52:37;8.40;1.00
16198;DHT22;8206;51.440;6.914;2024-03-29T06:55:05;8.40;1.00
16198;DHT22;8206;51.440;6.914;2024-03-29T06:57:33;8.50;1.00
16198;DHT22;8206;51.440;6.914;2024-03-29T07:00:01;8.50;1.00
16198;DHT22;8206;51.440;6.914;2024-03-29T07:02:29;8.50;1.00
16198;DHT22;8206;51.440;6.914;2024-03-29T07:04:55;8.50;1.00
16198;DHT22;8206;51.440;6.914;2024-03-29T07:07:22;8.50;1.00
16198;DHT22;8206;51.440;6.914;2024-03-29T07:09:49;8.50;1.00
16198;DHT22;8206;51.440;6.914;2024-03-29T07:12:16;8.50;1.00
16198;DHT22;8206;51.440;6.914;2024-03-29T07:14:44;8.60;1.00
16198;DHT22;8206;51.440;6.914;2024-03-29T07:17:11;8.50;1.00
16198;DHT22;8206;51.440;6.914;2024-03-29T07:19:38;8.70;1.00
16198;DHT22;8206;51.440;6.914;2024-03-29T07:22:04;8.80;99.90
16198;DHT22;8206;51.440;6.914;2024-03-29T07:24:31;8.90;99.90
16198;DHT22;8206;51.440;6.914;2024-03-29T07:26:58;9.00;99.90
16198;DHT22;8206;51.440;6.914;2024-03-29T07:29:24;9.00;1.00
16198;DHT22;8206;51.440;6.914;2024-03-29T07:31:52;9.00;1.00
16198;DHT22;8206;51.440;6.914;2024-03-29T07:34:19;9.20;1.00
16198;DHT22;8206;51.440;6.914;2024-03-29T07:36:46;9.20;99.90
16198;DHT22;8206;51.440;6.914;2024-03-29T07:39:13;9.30;1.00
16198;DHT22;8206;51.440;6.914;2024-03-29T07:41:39;9.30;1.00
16198;DHT22;8206;51.440;6.914;2024-03-29T07:44:06;9.40;1.00
16198;DHT22;8206;51.440;6.914;2024-03-29T07:46:36;9.40;1.00
16198;DHT22;8206;51.440;6.914;2024-03-29T07:49:04;9.50;1.00
16198;DHT22;8206;51.440;6.914;2024-03-29T07:51:31;9.40;1.00
16198;DHT22;8206;51.440;6.914;2024-03-29T07:53:58;9.40;1.00
16198;DHT22;8206;51.440;6.914;2024-03-29T07:56:25;9.40;1.00
16198;DHT22;8206;51.440;6.914;2024-03-29T07:58:52;9.40;54.70
16198;DHT22;8206;51.440;6.914;2024-03-29T08:01:19;9.50;1.00
16198;DHT22;8206;51.440;6.914;2024-03-29T08:03:47;9.60;1.00
16198;DHT22;8206;51.440;6.914;2024-03-29T08:06:15;9.70;1.00
16198;DHT22;8206;51.440;6.914;2024-03-29T08:08:44;9.80;34.60
16198;DHT22;8206;51.440;6.914;2024-03-29T08:11:11;9.80;1.00
16198;DHT22;8206;51.440;6.914;2024-03-29T08:13:38;9.80;1.00
16198;DHT22;8206;51.440;6.914;2024-03-29T08:16:05;9.80;1.00
16198;DHT22;8206;51.440;6.914;2024-03-29T08:18:32;9.70;1.00
16198;DHT22;8206;51.440;6.914;2024-03-29T08:21:00;9.90;1.00
16198;DHT22;8206;51.440;6.914;2024-03-29T08:23:28;10.20;1.00
16198;DHT22;8206;51.440;6.914;2024-03-29T08:25:56;10.50;1.00
16198;DHT22;8206;51.440;6.914;2024-03-29T08:28:23;10.50;1.00
16198;DHT22;8206;51.440;6.914;2024-03-29T08:30:57;10.50;1.00
16198;DHT22;8206;51.440;6.914;2024-03-29T08:33:24;10.40;1.00
16198;DHT22;8206;51.440;6.914;2024-03-29T08:35:52;10.40;1.00
16198;DHT22;8206;51.440;6.914;2024-03-29T08:38:19;10.40;1.00
16198;DHT22;8206;51.440;6.914;2024-03-29T08:40:47;10.30;1.00
16198;DHT22;8206;51.440;6.914;2024-03-29T08:43:15;10.30;1.00
16198;DHT22;8206;51.440;6.914;2024-03-29T08:45:41;10.30;1.00
16198;DHT22;8206;51.440;6.914;2024-03-29T08:48:08;10.20;1.00
16198;DHT22;8206;51.440;6.914;2024-03-29T08:50:35;10.30;1.00
16198;DHT22;8206;51.440;6.914;2024-03-29T08:53:02;10.20;1.00
16198;DHT22;8206;51.440;6.914;2024-03-29T08:55:29;10.20;1.00
16198;DHT22;8206;51.440;6.914;2024-03-29T08:57:57;10.30;1.00
16198;DHT22;8206;51.440;6.914;2024-03-29T09:00:24;10.40;1.00
16198;DHT22;8206;51.440;6.914;2024-03-29T09:02:51;10.50;1.00
16198;DHT22;8206;51.440;6.914;2024-03-29T09:05:18;10.40;1.00
16198;DHT22;8206;51.440;6.914;2024-03-29T09:07:45;10.40;1.00
16198;DHT22;8206;51.440;6.914;2024-03-29T09:10:12;10.60;1.00
16198;DHT22;8206;51.440;6.914;2024-03-29T09:12:38;10.60;1.00
16198;DHT22;8206;51.440;6.914;2024-03-29T09:15:07;10.70;1.00
16198;DHT22;8206;51.440;6.914;2024-03-29T09:17:38;10.90;1.00
16198;DHT22;8206;51.440;6.914;2024-03-29T09:20:05;11.10;1.00
16198;DHT22;8206;51.440;6.914;2024-03-29T09:22:32;11.30;1.00
16198;DHT22;8206;51.440;6.914;2024-03-29T09:25:00;11.60;1.00
16198;DHT22;8206;51.440;6.914;2024-03-29T09:27:27;11.80;1.00
16198;DHT22;8206;51.440;6.914;2024-03-29T09:29:55;12.10;1.00
16198;DHT22;8206;51.440;6.914;2024-03-29T09:32:23;12.30;1.00
16198;DHT22;8206;51.440;6.914;2024-03-29T09:34:50;12.20;1.00
16198;DHT22;8206;51.440;6.914;2024-03-29T09:37:17;12.20;1.00
16198;DHT22;8206;51.440;6.914;2024-03-29T09:39:45;12.10;1.00
16198;DHT22;8206;51.440;6.914;2024-03-29T09:42:15;11.90;1.00
16198;DHT22;8206;51.440;6.914;2024-03-29T09:44:43;11.70;1.00
16198;DHT22;8206;51.440;6.914;2024-03-29T09:47:14;11.50;1.00
16198;DHT22;8206;51.440;6.914;2024-03-29T09:49:43;11.80;1.00
16198;DHT22;8206;51.440;6.914;2024-03-29T09:52:11;12.00;1.00
16198;DHT22;8206;51.440;6.914;2024-03-29T09:54:38;12.10;1.00
16198;DHT22;8206;51.440;6.914;2024-03-29T09:57:05;12.30;1.00
16198;DHT22;8206;51.440;6.914;2024-03-29T09:59:32;12.50;1.00
16198;DHT22;8206;51.440;6.914;2024-03-29T10:02:00;12.80;1.00
16198;DHT22;8206;51.440;6.914;2024-03-29T10:04:31;13.10;1.00
16198;DHT22;8206;51.440;6.914;2024-03-29T10:07:00;13.30;1.00
16198;DHT22;8206;51.440;6.914;2024-03-29T10:09:27;13.40;1.00
16198;DHT22;8206;51.440;6.914;2024-03-29T10:11:57;13.40;1.00
16198;DHT22;8206;51.440;6.914;2024-03-29T10:14:24;13.60;1.00
16198;DHT22;8206;51.440;6.914;2024-03-29T10:16:51;13.60;1.00
16198;DHT22;8206;51.440;6.914;2024-03-29T10:19:21;13.60;1.00
16198;DHT22;8206;51.440;6.914;2024-03-29T10:21:47;13.50;1.00
16198;DHT22;8206;51.440;6.914;2024-03-29T10:24:16;13.60;1.00
16198;DHT22;8206;51.440;6.914;2024-03-29T10:26:43;13.60;1.00
16198;DHT22;8206;51.440;6.914;2024-03-29T10:29:10;13.50;1.00
16198;DHT22;8206;51.440;6.914;2024-03-29T10:31:37;13.30;1.00
16198;DHT22;8206;51.440;6.914;2024-03-29T10:34:04;13.10;1.00
16198;DHT22;8206;51.440;6.914;2024-03-29T10:36:31;13.00;1.00
16198;DHT22;8206;51.440;6.914;2024-03-29T10:39:01;12.90;1.00
16198;DHT22;8206;51.440;6.914;2024-03-29T10:41:30;13.00;1.00
16198;DHT22;8206;51.440;6.914;2024-03-29T10:44:02;13.10;1.00
16198;DHT22;8206;51.440;6.914;2024-03-29T10:46:31;13.20;1.00
16198;DHT22;8206;51.440;6.914;2024-03-29T10:48:58;13.20;1.00
16198;DHT22;8206;51.440;6.914;2024-03-29T10:51:26;13.30;1.00
16198;DHT22;8206;51.440;6.914;2024-03-29T10:53:54;13.40;1.00
16198;DHT22;8206;51.440;6.914;2024-03-29T10:56:22;13.40;1.00
16198;DHT22;8206;51.440;6.914;2024-03-29T10:58:56;13.70;1.00
16198;DHT22;8206;51.440;6.914;2024-03-29T11:01:26;13.90;1.00
16198;DHT22;8206;51.440;6.914;2024-03-29T11:03:55;14.30;1.00
16198;DHT22;8206;51.440;6.914;2024-03-29T11:06:29;14.70;1.00
16198;DHT22;8206;51.440;6.914;2024-03-29T11:08:59;15.00;1.00
16198;DHT22;8206;51.440;6.914;2024-03-29T11:11:28;15.30;1.00
16198;DHT22;8206;51.440;6.914;2024-03-29T11:14:02;15.50;1.00
16198;DHT22;8206;51.440;6.914;2024-03-29T11:16:29;15.60;1.00
16198;DHT22;8206;51.440;6.914;2024-03-29T11:18:56;15.70;1.00
16198;DHT22;8206;51.440;6.914;2024-03-29T11:21:24;15.80;1.00
16198;DHT22;8206;51.440;6.914;2024-03-29T11:23:53;16.00;1.00
16198;DHT22;8206;51.440;6.914;2024-03-29T11:26:21;16.10;1.00
16198;DHT22;8206;51.440;6.914;2024-03-29T11:28:49;16.30;1.00
16198;DHT22;8206;51.440;6.914;2024-03-29T11:31:17;16.40;1.00
16198;DHT22;8206;51.440;6.914;2024-03-29T11:33:45;16.60;1.00
16198;DHT22;8206;51.440;6.914;2024-03-29T11:36:15;16.60;1.00
16198;DHT22;8206;51.440;6.914;2024-03-29T11:38:44;16.50;1.00
16198;DHT22;8206;51.440;6.914;2024-03-29T11:41:13;16.30;1.00
16198;DHT22;8206;51.440;6.914;2024-03-29T11:43:40;16.30;1.00
16198;DHT22;8206;51.440;6.914;2024-03-29T11:46:10;16.10;1.00
16198;DHT22;8206;51.440;6.914;2024-03-29T11:48:38;16.00;1.00
16198;DHT22;8206;51.440;6.914;2024-03-29T11:51:06;15.80;1.00
16198;DHT22;8206;51.440;6.914;2024-03-29T11:53:34;15.60;1.00
16198;DHT22;8206;51.440;6.914;2024-03-29T11:56:01;15.30;1.00
16198;DHT22;8206;51.440;6.914;2024-03-29T11:58:30;15.10;1.00
16198;DHT22;8206;51.440;6.914;2024-03-29T12:00:57;15.00;1.00
16198;DHT22;8206;51.440;6.914;2024-03-29T12:03:26;14.70;1.00
16198;DHT22;8206;51.440;6.914;2024-03-29T12:05:54;14.50;1.00
16198;DHT22;8206;51.440;6.914;2024-03-29T12:08:24;14.40;1.00
16198;DHT22;8206;51.440;6.914;2024-03-29T12:10:51;14.30;1.00
16198;DHT22;8206;51.440;6.914;2024-03-29T12:13:17;14.30;1.00
16198;DHT22;8206;51.440;6.914;2024-03-29T12:15:44;14.30;1.00
16198;DHT22;8206;51.440;6.914;2024-03-29T12:18:11;14.30;1.00
16198;DHT22;8206;51.440;6.914;2024-03-29T12:20:38;14.40;1.00
16198;DHT22;8206;51.440;6.914;2024-03-29T12:23:07;14.70;1.00
16198;DHT22;8206;51.440;6.914;2024-03-29T12:25:36;14.90;1.00
16198;DHT22;8206;51.440;6.914;2024-03-29T12:28:03;15.20;1.00
16198;DHT22;8206;51.440;6.914;2024-03-29T12:30:31;15.40;1.00
16198;DHT22;8206;51.440;6.914;2024-03-29T12:33:01;15.40;1.00
16198;DHT22;8206;51.440;6.914;2024-03-29T12:35:28;15.40;1.00
16198;DHT22;8206;51.440;6.914;2024-03-29T12:37:58;15.50;1.00
16198;DHT22;8206;51.440;6.914;2024-03-29T12:40:27;15.60;1.00
16198;DHT22;8206;51.440;6.914;2024-03-29T12:42:56;15.80;1.00
16198;DHT22;8206;51.440;6.914;2024-03-29T12:45:24;15.90;1.00
16198;DHT22;8206;51.440;6.914;2024-03-29T12:47:50;15.90;1.00
16198;DHT22;8206;51.440;6.914;2024-03-29T12:50:24;16.20;1.00
16198;DHT22;8206;51.440;6.914;2024-03-29T12:52:53;16.30;1.00
16198;DHT22;8206;51.440;6.914;2024-03-29T12:55:21;16.30;1.00
16198;DHT22;8206;51.440;6.914;2024-03-29T12:57:50;16.40;1.00
16198;DHT22;8206;51.440;6.914;2024-03-29T13:00:18;16.60;1.00
16198;DHT22;8206;51.440;6.914;2024-03-29T13:02:45;17.00;1.00
16198;DHT22;8206;51.440;6.914;2024-03-29T13:05:12;17.30;1.00
16198;DHT22;8206;51.440;6.914;2024-03-29T13:07:39;17.50;1.00
16198;DHT22;8206;51.440;6.914;2024-03-29T13:10:06;17.50;1.00
16198;DHT22;8206;51.440;6.914;2024-03-29T13:12:39;17.40;1.00
16198;DHT22;8206;51.440;6.914;2024-03-29T13:15:17;17.20;1.00
16198;DHT22;8206;51.440;6.914;2024-03-29T13:17:44;16.90;1.00
16198;DHT22;8206;51.440;6.914;2024-03-29T13:20:11;16.80;1.00
16198;DHT22;8206;51.440;6.914;2024-03-29T13:22:38;16.80;1.00
16198;DHT22;8206;51.440;6.914;2024-03-29T13:25:07;16.80;1.00
16198;DHT22;8206;51.440;6.914;2024-03-29T13:27:35;16.90;1.00
16198;DHT22;8206;51.440;6.914;2024-03-29T13:30:02;16.90;1.00
16198;DHT22;8206;51.440;6.914;2024-03-29T13:32:31;17.00;1.00
16198;DHT22;8206;51.440;6.914;2024-03-29T13:34:59;17.20;1.00
16198;DHT22;8206;51.440;6.914;2024-03-29T13:37:25;17.40;1.00
16198;DHT22;8206;51.440;6.914;2024-03-29T13:39:53;17.20;1.00
16198;DHT22;8206;51.440;6.914;2024-03-29T13:42:19;17.20;1.00
16198;DHT22;8206;51.440;6.914;2024-03-29T13:44:49;17.30;1.00
16198;DHT22;8206;51.440;6.914;2024-03-29T13:47:15;17.50;1.00
16198;DHT22;8206;51.440;6.914;2024-03-29T13:49:45;17.50;1.00
16198;DHT22;8206;51.440;6.914;2024-03-29T13:52:12;17.60;1.00
16198;DHT22;8206;51.440;6.914;2024-03-29T13:54:42;17.70;1.00
16198;DHT22;8206;51.440;6.914;2024-03-29T13:57:09;17.80;1.00
16198;DHT22;8206;51.440;6.914;2024-03-29T13:59:36;17.60;1.00
16198;DHT22;8206;51.440;6.914;2024-03-29T14:02:03;17.40;1.00
16198;DHT22;8206;51.440;6.914;2024-03-29T14:04:30;17.20;1.00
16198;DHT22;8206;51.440;6.914;2024-03-29T14:06:58;17.20;1.00
16198;DHT22;8206;51.440;6.914;2024-03-29T14:09:26;17.20;1.00
16198;DHT22;8206;51.440;6.914;2024-03-29T14:11:52;17.10;1.00
16198;DHT22;8206;51.440;6.914;2024-03-29T14:14:19;17.00;1.00
16198;DHT22;8206;51.440;6.914;2024-03-29T14:16:46;17.10;1.00
16198;DHT22;8206;51.440;6.914;2024-03-29T14:19:12;17.00;1.00
16198;DHT22;8206;51.440;6.914;2024-03-29T14:21:40;17.00;1.00
16198;DHT22;8206;51.440;6.914;2024-03-29T14:24:08;17.00;1.00
16198;DHT22;8206;51.440;6.914;2024-03-29T14:26:34;17.00;1.00
16198;DHT22;8206;51.440;6.914;2024-03-29T14:29:01;17.10;1.00
16198;DHT22;8206;51.440;6.914;2024-03-29T14:31:28;17.20;1.00
16198;DHT22;8206;51.440;6.914;2024-03-29T14:33:55;17.30;1.00
16198;DHT22;8206;51.440;6.914;2024-03-29T14:36:21;17.40;1.00
16198;DHT22;8206;51.440;6.914;2024-03-29T14:38:48;17.20;1.00
16198;DHT22;8206;51.440;6.914;2024-03-29T14:41:18;17.30;1.00
16198;DHT22;8206;51.440;6.914;2024-03-29T14:43:47;17.40;1.00
16198;DHT22;8206;51.440;6.914;2024-03-29T14:46:16;17.50;1.00
16198;DHT22;8206;51.440;6.914;2024-03-29T14:48:42;17.50;1.00
16198;DHT22;8206;51.440;6.914;2024-03-29T14:51:09;17.60;1.00
16198;DHT22;8206;51.440;6.914;2024-03-29T14:53:36;17.60;1.00
16198;DHT22;8206;51.440;6.914;2024-03-29T14:56:02;17.40;1.00
16198;DHT22;8206;51.440;6.914;2024-03-29T14:58:31;17.30;1.00
16198;DHT22;8206;51.440;6.914;2024-03-29T15:00:57;17.40;1.00
16198;DHT22;8206;51.440;6.914;2024-03-29T15:03:24;17.50;1.00
16198;DHT22;8206;51.440;6.914;2024-03-29T15:05:51;17.60;1.00
16198;DHT22;8206;51.440;6.914;2024-03-29T15:08:17;17.50;1.00
16198;DHT22;8206;51.440;6.914;2024-03-29T15:10:44;17.30;1.00
16198;DHT22;8206;51.440;6.914;2024-03-29T15:13:11;17.10;1.00
16198;DHT22;8206;51.440;6.914;2024-03-29T15:15:39;17.10;1.00
16198;DHT22;8206;51.440;6.914;2024-03-29T15:18:06;17.00;1.00
16198;DHT22;8206;51.440;6.914;2024-03-29T15:20:32;17.00;1.00
16198;DHT22;8206;51.440;6.914;2024-03-29T15:22:59;17.00;1.00
16198;DHT22;8206;51.440;6.914;2024-03-29T15:25:26;17.10;1.00
16198;DHT22;8206;51.440;6.914;2024-03-29T15:27:52;17.00;1.00
16198;DHT22;8206;51.440;6.914;2024-03-29T15:30:36;16.90;1.00
16198;DHT22;8206;51.440;6.914;2024-03-29T15:33:08;17.00;1.00
16198;DHT22;8206;51.440;6.914;2024-03-29T15:35:35;17.00;1.00
16198;DHT22;8206;51.440;6.914;2024-03-29T15:38:02;16.80;1.00
16198;DHT22;8206;51.440;6.914;2024-03-29T15:40:31;16.80;1.00
16198;DHT22;8206;51.440;6.914;2024-03-29T15:42:58;16.80;1.00
16198;DHT22;8206;51.440;6.914;2024-03-29T15:45:24;16.80;1.00
16198;DHT22;8206;51.440;6.914;2024-03-29T15:47:52;16.60;1.00
16198;DHT22;8206;51.440;6.914;2024-03-29T15:50:20;16.50;1.00
16198;DHT22;8206;51.440;6.914;2024-03-29T15:52:46;16.40;1.00
16198;DHT22;8206;51.440;6.914;2024-03-29T15:55:13;16.10;1.00
16198;DHT22;8206;51.440;6.914;2024-03-29T15:57:40;15.80;1.00
16198;DHT22;8206;51.440;6.914;2024-03-29T16:00:08;15.60;1.00
16198;DHT22;8206;51.440;6.914;2024-03-29T16:02:45;15.30;1.00
16198;DHT22;8206;51.440;6.914;2024-03-29T16:05:12;15.10;1.00
16198;DHT22;8206;51.440;6.914;2024-03-29T16:07:40;15.00;1.00
16198;DHT22;8206;51.440;6.914;2024-03-29T16:10:07;14.80;1.00